Time;durP1;ratioP1;P1;durP2;ratioP2;P2;SDS_P1;SDS_P2;PMS_P1;PMS_P2;Temp;Humidity;BMP_temperature;BMP_pressure;BME280_temperature;BME280_humidity;BME280_pressure;Samples;Min_cycle;Max_cycle;Signal;HPM_P1;HPM_P2
2022/01/29 00:01:25;;;;;;;14.68;11.77;;;;;;;18.37;45.75;102463.47;5012603;28;20066;-77
2022/01/29 00:03:53;;;;;;;13.32;11.93;;;;;;;18.38;45.81;102463.38;5012542;28;20050;-78
2022/01/29 00:06:21;;;;;;;12.70;11.43;;;;;;;18.37;45.49;102463.47;5012658;28;20416;-78
2022/01/29 00:08:48;;;;;;;12.98;11.65;;;;;;;18.38;45.50;102457.16;5012271;28;20049;-78
2022/01/29 00:11:17;;;;;;;14.52;11.60;;;;;;;18.38;45.57;102449.13;5010932;28;20045;-78
2022/01/29 00:13:44;;;;;;;12.38;11.10;;;;;;;18.38;45.48;102451.78;5012317;28;20042;-79
2022/01/29 00:16:12;;;;;;;11.95;10.93;;;;;;;18.38;45.36;102468.75;5012691;28;20046;-79
2022/01/29 00:18:39;;;;;;;12.52;11.23;;;;;;;18.39;45.55;102454.41;5011029;28;20049;-79
2022/01/29 00:21:06;;;;;;;12.98;11.60;;;;;;;18.40;45.15;102455.28;5012505;28;20057;-78
2022/01/29 00:23:33;;;;;;;13.35;12.05;;;;;;;18.38;44.93;102458.03;5012020;28;20405;-79
2022/01/29 00:26:01;;;;;;;12.13;10.88;;;;;;;18.40;44.72;102455.28;5012184;28;20057;-79
2022/01/29 00:28:29;;;;;;;13.20;11.52;;;;;;;18.40;44.64;102453.44;5011399;28;20050;-79
2022/01/29 00:30:57;;;;;;;12.65;11.43;;;;;;;18.39;44.36;102450.84;5011330;28;20061;-79
2022/01/29 00:33:24;;;;;;;11.95;10.75;;;;;;;18.39;44.13;102454.41;5010871;28;20049;-79
2022/01/29 00:35:51;;;;;;;13.18;11.10;;;;;;;18.40;44.08;102455.28;5112600;28;20397;-78
2022/01/29 00:38:19;;;;;;;11.95;10.60;;;;;;;18.40;44.02;102460.63;5115711;28;20047;-79
2022/01/29 00:40:47;;;;;;;12.85;11.40;;;;;;;18.40;43.82;102468.69;5115289;28;20043;-79
2022/01/29 00:43:14;;;;;;;13.93;10.38;;;;;;;18.40;43.87;102463.31;5115221;28;20036;-79
2022/01/29 00:45:41;;;;;;;11.48;10.32;;;;;;;18.42;43.64;102472.13;5115843;28;20044;-78
2022/01/29 00:48:09;;;;;;;11.82;10.52;;;;;;;18.42;43.56;102474.81;5114089;28;20043;-78
2022/01/29 00:50:36;;;;;;;11.95;10.70;;;;;;;18.42;43.50;102477.47;5115127;28;20052;-78
2022/01/29 00:53:04;;;;;;;12.68;11.38;;;;;;;18.42;43.35;102461.41;5029715;28;20123;-78
2022/01/29 00:55:31;;;;;;;11.88;10.55;;;;;;;18.43;43.31;102476.53;5010567;28;20038;-78
2022/01/29 00:57:58;;;;;;;11.88;10.68;;;;;;;18.43;43.23;102471.16;5012110;28;20046;-78
2022/01/29 01:00:26;;;;;;;12.30;10.90;;;;;;;18.43;43.25;102458.66;5011638;28;20482;-78
2022/01/29 01:02:53;;;;;;;11.60;10.48;;;;;;;18.44;43.09;102467.56;5011402;28;20501;-78
2022/01/29 01:05:21;;;;;;;12.70;11.00;;;;;;;18.44;42.86;102481.81;5009873;28;20064;-78
2022/01/29 01:07:48;;;;;;;11.20;9.90;;;;;;;18.45;42.99;102494.28;5011573;28;20409;-78
2022/01/29 01:10:16;;;;;;;13.82;11.32;;;;;;;18.47;43.00;102494.19;5011593;28;20042;-78
2022/01/29 01:12:43;;;;;;;11.40;10.30;;;;;;;18.46;42.94;102497.81;5011261;28;20050;-78
2022/01/29 01:15:11;;;;;;;11.32;10.23;;;;;;;18.46;42.81;102490.63;5011582;28;20046;-78
2022/01/29 01:17:38;;;;;;;11.70;10.55;;;;;;;18.48;42.62;102495.94;5012050;28;20053;-79
2022/01/29 01:20:07;;;;;;;12.00;10.80;;;;;;;18.49;42.53;102497.66;5011600;28;20049;-78
2022/01/29 01:22:34;;;;;;;11.50;10.40;;;;;;;18.49;42.36;102498.50;5011639;28;20049;-78
2022/01/29 01:25:02;;;;;;;10.93;9.82;;;;;;;18.51;42.24;102501.09;5010010;28;20053;-78
2022/01/29 01:27:29;;;;;;;10.90;9.85;;;;;;;18.53;42.33;102496.53;5011144;28;20061;-78
2022/01/29 01:29:58;;;;;;;12.40;9.98;;;;;;;18.53;42.42;102494.72;5011654;28;20045;-79
2022/01/29 01:32:25;;;;;;;11.40;10.20;;;;;;;18.55;42.12;102502.66;5011216;28;20042;-78
2022/01/29 01:34:56;;;;;;;10.73;9.73;;;;;;;18.57;42.16;102499.91;5010929;28;20050;-79
2022/01/29 01:40:14;;;;;;;10.02;9.02;;;;;;;18.59;42.14;102489.94;5011409;28;20512;-79
2022/01/29 01:42:41;;;;;;;10.65;9.55;;;;;;;18.58;42.13;102505.16;5011034;28;20061;-79
2022/01/29 01:45:09;;;;;;;10.75;9.75;;;;;;;18.58;42.15;102507.84;5011780;28;20397;-79
2022/01/29 01:47:36;;;;;;;10.73;9.77;;;;;;;18.58;42.18;102507.00;5010383;28;20046;-79
2022/01/29 01:50:05;;;;;;;10.65;9.65;;;;;;;18.59;42.13;102506.91;5011693;28;20042;-80
2022/01/29 01:52:33;;;;;;;10.57;9.48;;;;;;;18.59;41.82;102498.00;5008795;28;20049;-79
2022/01/29 01:55:00;;;;;;;9.77;8.80;;;;;;;18.57;42.14;102495.41;4996607;28;20056;-79
2022/01/29 01:57:28;;;;;;;10.43;8.43;;;;;;;18.57;42.13;102483.81;4990432;28;20057;-79
2022/01/29 01:59:55;;;;;;;9.25;8.18;;;;;;;18.57;42.07;102483.81;5012885;28;20069;-79
2022/01/29 02:02:22;;;;;;;9.60;8.70;;;;;;;18.55;42.09;102486.56;5011264;28;20046;-79
2022/01/29 02:04:50;;;;;;;9.45;8.55;;;;;;;18.55;42.16;102475.84;5010900;28;20046;-79
2022/01/29 02:07:18;;;;;;;9.60;8.70;;;;;;;18.56;42.20;102476.72;5011288;28;20053;-82
2022/01/29 02:09:46;;;;;;;10.18;9.10;;;;;;;18.54;42.10;102474.13;5011120;28;20112;-83
2022/01/29 02:12:14;;;;;;;8.77;7.97;;;;;;;18.55;42.28;102467.78;5009959;28;20046;-82
2022/01/29 02:14:44;;;;;;;9.15;8.32;;;;;;;18.54;42.05;102469.63;5010610;28;20054;-81
2022/01/29 02:17:12;;;;;;;9.18;8.27;;;;;;;18.55;42.06;102462.44;5010184;28;20052;-81
2022/01/29 02:19:39;;;;;;;8.88;7.95;;;;;;;18.54;41.99;102463.38;5010736;28;20046;-79
2022/01/29 02:22:07;;;;;;;8.82;8.05;;;;;;;18.54;42.08;102464.25;5011113;28;20112;-78
2022/01/29 02:24:36;;;;;;;9.70;8.77;;;;;;;18.54;42.15;102460.69;5010362;28;20048;-79
2022/01/29 02:27:03;;;;;;;8.82;8.00;;;;;;;18.53;41.87;102449.13;5010373;28;20377;-79
2022/01/29 02:29:34;;;;;;;10.23;9.23;;;;;;;18.52;41.70;102451.91;5010712;28;20050;-79
2022/01/29 02:32:02;;;;;;;8.73;7.93;;;;;;;18.53;41.58;102450.94;5010031;28;20405;-79
2022/01/29 02:34:30;;;;;;;8.85;7.95;;;;;;;18.54;41.54;102445.47;5034012;28;20051;-80
2022/01/29 02:36:58;;;;;;;8.07;7.28;;;;;;;18.54;41.49;102439.25;5146044;27;20612;-80
2022/01/29 02:39:25;;;;;;;8.60;7.80;;;;;;;18.55;41.57;102440.97;5146044;27;20403;-79
2022/01/29 02:41:53;;;;;;;8.52;7.63;;;;;;;18.55;41.41;102440.97;5113346;28;20040;-80
2022/01/29 02:44:22;;;;;;;9.05;8.23;;;;;;;18.55;41.34;102440.97;5113197;28;20039;-80
2022/01/29 02:46:54;;;;;;;8.40;7.60;;;;;;;18.56;41.70;102447.22;5113625;28;20047;-79
2022/01/29 02:49:26;;;;;;;9.52;8.45;;;;;;;18.55;41.52;102443.66;5113507;28;20056;-79
2022/01/29 02:51:56;;;;;;;8.53;7.73;;;;;;;18.57;41.47;102446.25;5111491;28;20487;-79
2022/01/29 02:54:25;;;;;;;8.30;7.50;;;;;;;18.55;41.66;102443.66;5063801;28;20034;-79
2022/01/29 02:56:53;;;;;;;8.02;7.25;;;;;;;18.54;41.16;102437.44;5004451;28;20477;-80
2022/01/29 02:59:20;;;;;;;7.80;7.00;;;;;;;18.54;41.38;102445.47;5009881;28;20053;-79
2022/01/29 03:01:48;;;;;;;8.63;7.72;;;;;;;18.53;41.53;102454.47;5009313;28;20050;-79
2022/01/29 03:04:15;;;;;;;8.82;7.70;;;;;;;18.54;41.45;102444.63;5010009;28;20046;-79
2022/01/29 03:06:43;;;;;;;8.68;7.88;;;;;;;18.53;41.44;102446.44;5009161;28;20500;-79
2022/01/29 03:09:10;;;;;;;8.57;7.78;;;;;;;18.54;41.44;102444.63;5010240;28;20057;-79
2022/01/29 03:11:38;;;;;;;7.95;7.22;;;;;;;18.53;41.37;102450.94;5009832;28;20069;-79
2022/01/29 03:14:05;;;;;;;7.13;6.43;;;;;;;18.53;41.26;102448.25;5008633;28;20046;-79
2022/01/29 03:16:33;;;;;;;7.88;7.18;;;;;;;18.52;41.27;102460.81;5008043;28;20057;-79
2022/01/29 03:19:00;;;;;;;7.90;7.13;;;;;;;18.54;41.15;102455.34;5008104;28;20053;-79
2022/01/29 03:21:28;;;;;;;8.18;7.43;;;;;;;18.54;41.24;102468.75;5009047;28;20050;-79
2022/01/29 03:23:55;;;;;;;8.23;7.43;;;;;;;18.53;41.16;102470.56;5010120;28;20056;-77
2022/01/29 03:26:23;;;;;;;8.13;7.32;;;;;;;18.53;41.11;102472.41;5010119;28;20050;-79
2022/01/29 03:28:50;;;;;;;7.20;6.60;;;;;;;18.52;41.17;102471.53;5012480;28;20478;-79
2022/01/29 03:31:17;;;;;;;8.27;7.47;;;;;;;18.51;41.02;102469.81;5010317;28;20053;-79
2022/01/29 03:33:45;;;;;;;7.22;6.53;;;;;;;18.51;41.04;102468.91;4993361;28;20575;-80
2022/01/29 03:36:12;;;;;;;8.15;7.10;;;;;;;18.52;41.17;102476.03;4993558;28;20465;-79
2022/01/29 03:38:40;;;;;;;7.45;6.85;;;;;;;18.51;41.01;102469.81;4993761;28;20050;-80
2022/01/29 03:41:09;;;;;;;7.70;7.07;;;;;;;18.51;41.01;102471.59;4993403;28;20409;-80
2022/01/29 03:43:43;;;;;;;7.85;7.15;;;;;;;18.52;41.03;102476.91;4993338;28;20108;-79
2022/01/29 03:46:12;;;;;;;7.85;7.15;;;;;;;18.52;41.02;102482.25;4993430;28;20494;-80
2022/01/29 03:48:40;;;;;;;7.03;6.38;;;;;;;18.52;40.83;102476.91;4993463;28;20410;-80
2022/01/29 03:51:07;;;;;;;7.60;6.82;;;;;;;18.53;41.06;102475.94;4993233;28;20486;-80
2022/01/29 03:53:35;;;;;;;7.97;7.25;;;;;;;18.53;40.96;102480.44;4994032;28;20046;-80
2022/01/29 03:56:03;;;;;;;7.68;6.97;;;;;;;18.53;40.94;102483.13;5007147;28;20057;-80
2022/01/29 03:58:30;;;;;;;7.50;6.80;;;;;;;18.53;40.83;102478.63;5032000;28;20047;-80
2022/01/29 04:00:57;;;;;;;7.40;6.63;;;;;;;18.53;40.64;102481.31;5116164;28;20044;-80
2022/01/29 04:03:25;;;;;;;7.30;6.60;;;;;;;18.52;41.06;102473.34;5116223;28;20036;-80
2022/01/29 04:05:52;;;;;;;7.22;6.53;;;;;;;18.54;40.90;102476.78;5116982;28;20043;-79
2022/01/29 04:08:19;;;;;;;6.80;6.10;;;;;;;18.53;40.95;102461.66;5116059;28;20054;-79
2022/01/29 04:10:50;;;;;;;6.70;6.10;;;;;;;18.53;40.85;102467.88;5116076;28;20046;-80
2022/01/29 04:13:22;;;;;;;7.88;7.07;;;;;;;18.53;40.91;102462.53;5115868;28;20404;-80
2022/01/29 04:15:49;;;;;;;6.90;6.30;;;;;;;18.53;40.96;102453.63;5114473;28;20062;-79
2022/01/29 04:18:18;;;;;;;6.32;5.78;;;;;;;18.51;40.75;102459.09;5115801;28;20043;-80
2022/01/29 04:20:46;;;;;;;6.70;6.10;;;;;;;18.51;40.76;102452.81;5116071;28;20455;-79
2022/01/29 04:23:13;;;;;;;7.13;6.38;;;;;;;18.52;40.72;102460.81;5116429;28;20048;-79
2022/01/29 04:25:42;;;;;;;7.15;6.55;;;;;;;18.53;40.47;102467.88;5115896;28;20403;-79
2022/01/29 04:28:12;;;;;;;7.20;6.50;;;;;;;18.53;40.31;102475.06;5114480;28;20080;-79
2022/01/29 04:30:51;;;;;;;7.07;6.47;;;;;;;18.52;40.47;102460.81;5116187;28;20043;-80
2022/01/29 04:35:45;;;;;;;7.18;6.47;;;;;;;18.53;40.21;102467.88;5083728;28;20479;-79
2022/01/29 04:38:13;;;;;;;6.68;6.07;;;;;;;18.53;40.14;102467.03;5115052;28;20534;-80
2022/01/29 04:40:41;;;;;;;5.95;5.35;;;;;;;18.52;40.21;102468.84;5115408;28;20051;-79
2022/01/29 04:43:08;;;;;;;7.75;6.40;;;;;;;18.53;40.29;102475.06;5115329;28;20406;-80
2022/01/29 04:45:36;;;;;;;7.00;6.30;;;;;;;18.53;40.14;102469.72;5115365;28;20062;-79
2022/01/29 04:48:04;;;;;;;7.05;6.38;;;;;;;18.53;40.15;102469.72;5113586;28;20051;-80
2022/01/29 04:50:31;;;;;;;5.88;5.38;;;;;;;18.53;40.10;102472.41;5115331;28;20070;-79
2022/01/29 04:52:59;;;;;;;6.65;6.00;;;;;;;18.52;40.17;102476.03;5115853;28;20047;-79
2022/01/29 04:55:27;;;;;;;6.75;6.10;;;;;;;18.52;40.14;102486.75;5106946;28;20031;-79
2022/01/29 04:57:54;;;;;;;6.55;5.95;;;;;;;18.53;40.17;102477.75;5010731;28;20049;-79
2022/01/29 05:00:22;;;;;;;5.95;5.38;;;;;;;18.52;40.04;102471.53;5011594;28;20045;-79
2022/01/29 05:02:52;;;;;;;5.93;5.43;;;;;;;18.52;40.00;102474.22;5011849;28;20050;-79
2022/01/29 05:05:20;;;;;;;6.18;5.57;;;;;;;18.52;39.96;102486.75;5011960;28;20493;-81
2022/01/29 05:07:47;;;;;;;6.50;5.90;;;;;;;18.52;39.95;102484.94;5011932;28;20053;-80
2022/01/29 05:10:15;;;;;;;5.82;5.28;;;;;;;18.51;40.10;102483.22;5012905;28;20050;-81
2022/01/29 05:13:04;;;;;;;5.88;5.30;;;;;;;18.52;40.25;102484.09;5012183;28;20042;-80
2022/01/29 05:29:11;;;;;;;6.40;5.80;;;;;;;18.50;40.08;102485.97;5012071;28;20046;-81
2022/01/29 05:31:39;;;;;;;6.07;5.55;;;;;;;18.50;39.98;102491.31;5010324;28;20061;-80
2022/01/29 05:34:06;;;;;;;5.63;5.10;;;;;;;18.49;39.85;102486.94;5011266;28;20405;-81
2022/01/29 05:36:33;;;;;;;5.57;4.88;;;;;;;18.49;40.07;102486.94;5010177;28;20050;-79
2022/01/29 05:39:02;;;;;;;5.60;5.10;;;;;;;18.50;40.22;102491.31;5011199;28;20061;-80
2022/01/29 05:41:29;;;;;;;5.80;5.25;;;;;;;18.49;40.00;102492.28;5009896;28;20054;-80
2022/01/29 05:43:57;;;;;;;6.30;5.70;;;;;;;18.48;39.89;102491.44;5012005;28;20038;-80
2022/01/29 05:46:25;;;;;;;5.35;4.88;;;;;;;18.49;39.98;102494.97;5011689;28;20050;-80
2022/01/29 05:48:53;;;;;;;6.65;6.13;;;;;;;18.48;39.97;102493.25;5011454;28;20049;-80
2022/01/29 05:51:20;;;;;;;5.88;5.38;;;;;;;18.47;39.94;102486.13;5008914;28;20054;-80
2022/01/29 05:53:48;;;;;;;6.10;5.50;;;;;;;18.46;39.97;102487.09;5011316;28;20046;-80
2022/01/29 05:56:15;;;;;;;7.18;6.47;;;;;;;18.45;39.82;102490.72;5010911;28;20049;-79
2022/01/29 05:58:42;;;;;;;7.45;6.65;;;;;;;18.44;39.98;102489.00;5005074;28;20057;-80
2022/01/29 06:01:10;;;;;;;7.93;7.13;;;;;;;18.43;39.87;102503.34;5147074;27;20047;-80
2022/01/29 06:03:42;;;;;;;9.05;6.95;;;;;;;18.42;39.92;102504.31;5114052;28;20047;-80
2022/01/29 06:06:09;;;;;;;11.55;9.35;;;;;;;18.38;39.82;102511.66;5113950;28;20403;-79
2022/01/29 06:08:36;;;;;;;10.70;8.55;;;;;;;18.38;39.75;102508.09;5114046;28;20387;-79
2022/01/29 06:11:04;;;;;;;11.32;9.27;;;;;;;18.35;39.85;102508.25;5094928;28;20176;-79
2022/01/29 06:13:31;;;;;;;10.52;8.50;;;;;;;18.34;39.77;102499.34;5114042;28;20050;-79
2022/01/29 06:16:01;;;;;;;10.45;8.88;;;;;;;18.33;40.11;102500.31;5113485;28;20048;-79
2022/01/29 06:18:28;;;;;;;11.68;8.23;;;;;;;18.34;39.66;102490.44;5112355;28;20043;-80
2022/01/29 06:21:03;;;;;;;11.45;8.63;;;;;;;18.33;39.60;102486.91;5113490;28;20040;-78
2022/01/29 06:23:33;;;;;;;11.23;8.70;;;;;;;18.36;39.49;102491.25;5113971;28;20123;-79
2022/01/29 06:26:05;;;;;;;10.85;7.97;;;;;;;18.36;39.39;102501.97;5112121;28;20035;-79
2022/01/29 06:28:33;;;;;;;9.57;8.10;;;;;;;18.35;39.54;102492.19;5113774;28;20043;-78
2022/01/29 06:31:01;;;;;;;9.38;7.63;;;;;;;18.34;39.43;102496.69;5109134;28;20036;-79
2022/01/29 06:33:29;;;;;;;9.90;8.75;;;;;;;18.34;39.46;102501.19;5010311;28;20053;-79
2022/01/29 06:35:57;;;;;;;8.85;7.72;;;;;;;18.34;39.26;102498.50;5053750;28;20044;-79
2022/01/29 06:38:24;;;;;;;9.73;7.72;;;;;;;18.34;39.26;102504.72;5111073;28;20047;-79
2022/01/29 06:40:52;;;;;;;10.00;8.40;;;;;;;18.34;39.31;102501.19;5113092;28;20051;-79
2022/01/29 06:43:19;;;;;;;9.50;8.38;;;;;;;18.34;39.25;102506.53;5113627;28;20046;-79
2022/01/29 06:45:47;;;;;;;9.80;7.78;;;;;;;18.34;39.33;102506.53;5112255;28;20039;-79
2022/01/29 06:48:15;;;;;;;10.57;8.43;;;;;;;18.33;39.28;102510.19;5113754;28;20036;-80
2022/01/29 06:50:46;;;;;;;9.05;7.28;;;;;;;18.31;39.22;102512.06;5113922;28;20043;-79
2022/01/29 06:53:13;;;;;;;10.70;8.13;;;;;;;18.32;39.30;102517.38;5112234;28;20046;-80
2022/01/29 06:55:41;;;;;;;8.65;7.65;;;;;;;18.32;39.29;102516.50;5113480;28;20064;-80
2022/01/29 06:58:08;;;;;;;9.27;7.88;;;;;;;18.32;39.27;102519.19;5074520;28;20046;-79
2022/01/29 07:00:55;;;;;;;9.00;7.68;;;;;;;18.31;39.34;102521.00;5010016;28;20042;-79
2022/01/29 07:03:23;;;;;;;9.05;8.15;;;;;;;18.31;39.25;102525.47;5013875;28;20042;-79
2022/01/29 07:05:50;;;;;;;9.07;8.13;;;;;;;18.30;39.22;102535.34;5012699;28;20130;-79
2022/01/29 07:08:18;;;;;;;9.25;8.13;;;;;;;18.30;39.16;102527.28;5013570;28;20049;-79
2022/01/29 07:10:46;;;;;;;8.07;7.28;;;;;;;18.30;39.29;102535.34;5013441;28;20042;-79
2022/01/29 07:13:13;;;;;;;8.45;7.53;;;;;;;18.29;39.19;102537.16;5013669;28;20061;-79
2022/01/29 07:15:41;;;;;;;9.30;7.65;;;;;;;18.29;39.11;102529.09;5012428;28;20086;-80
2022/01/29 07:18:08;;;;;;;7.88;7.07;;;;;;;18.30;39.33;102535.34;5013766;28;20049;-79
2022/01/29 07:20:35;;;;;;;7.97;7.18;;;;;;;18.29;39.08;102533.63;5013777;28;20046;-79
2022/01/29 07:23:06;;;;;;;9.27;8.27;;;;;;;18.28;39.03;102532.75;5013472;28;20069;-79
2022/01/29 07:25:34;;;;;;;8.50;7.60;;;;;;;18.29;38.93;102533.63;5013519;28;20401;-79
2022/01/29 07:28:01;;;;;;;8.70;7.82;;;;;;;18.27;39.14;102525.66;5013373;28;20056;-79
2022/01/29 07:30:29;;;;;;;8.32;7.35;;;;;;;18.29;39.09;102530.94;5013114;28;20046;-80
2022/01/29 07:32:56;;;;;;;8.52;7.35;;;;;;;18.27;39.21;102535.50;4995773;28;20057;-79
2022/01/29 07:35:23;;;;;;;8.77;7.28;;;;;;;18.26;39.07;102528.41;4994032;28;20047;-79
2022/01/29 07:37:52;;;;;;;9.98;8.07;;;;;;;18.26;39.02;102521.22;4993246;28;20053;-79
2022/01/29 07:40:19;;;;;;;9.18;7.25;;;;;;;18.25;39.01;102527.53;4993207;28;20054;-79
2022/01/29 07:42:47;;;;;;;9.57;8.63;;;;;;;18.24;39.11;102533.88;4991596;28;20073;-80
2022/01/29 07:45:14;;;;;;;8.38;7.40;;;;;;;18.24;39.05;102539.22;4994060;28;20073;-80
2022/01/29 07:47:42;;;;;;;8.48;7.68;;;;;;;18.24;39.12;102547.28;4994049;28;20050;-80
2022/01/29 07:50:10;;;;;;;8.95;7.13;;;;;;;18.23;38.97;102541.97;4993683;28;20046;-79
2022/01/29 07:52:37;;;;;;;9.52;6.63;;;;;;;18.23;38.91;102534.81;4993703;28;20038;-80
2022/01/29 07:55:07;;;;;;;8.38;7.10;;;;;;;18.24;38.90;102546.41;4991541;28;20054;-79
2022/01/29 07:57:35;;;;;;;9.15;7.60;;;;;;;18.23;38.93;102550.00;4993077;28;20057;-81
2022/01/29 08:00:04;;;;;;;8.77;7.35;;;;;;;18.23;39.16;102550.91;5008253;28;20057;-82
2022/01/29 08:02:39;;;;;;;8.70;6.97;;;;;;;18.23;38.95;102556.28;4993802;28;20116;-81
2022/01/29 08:05:08;;;;;;;9.18;7.25;;;;;;;18.21;38.96;102555.47;4993471;28;20049;-79
2022/01/29 08:07:35;;;;;;;8.43;7.43;;;;;;;18.21;38.89;102563.50;5008665;28;20054;-80
2022/01/29 08:10:03;;;;;;;7.88;7.07;;;;;;;18.20;38.98;102561.78;4991658;28;20052;-79
2022/01/29 08:12:30;;;;;;;8.70;7.85;;;;;;;18.21;38.96;102565.34;4993143;28;20047;-80
2022/01/29 08:14:57;;;;;;;8.10;7.07;;;;;;;18.20;38.86;102575.19;4991123;28;20042;-80
2022/01/29 08:17:25;;;;;;;7.82;6.97;;;;;;;18.20;38.94;102577.00;4992783;28;20103;-80
2022/01/29 08:19:52;;;;;;;8.45;7.20;;;;;;;18.20;38.94;102585.06;4993161;28;20049;-80
2022/01/29 08:22:19;;;;;;;7.40;6.57;;;;;;;18.19;38.89;102586.88;4993139;28;20053;-80
2022/01/29 08:24:47;;;;;;;8.05;7.25;;;;;;;18.20;38.99;102590.41;4991856;28;20074;-80
2022/01/29 08:27:14;;;;;;;7.70;6.35;;;;;;;18.19;39.20;102584.19;4992937;28;20050;-80
2022/01/29 08:29:42;;;;;;;8.63;7.82;;;;;;;18.19;39.15;102580.63;4991899;28;20405;-82
2022/01/29 08:32:09;;;;;;;8.48;7.10;;;;;;;18.21;38.94;102597.50;4993198;28;20382;-81
2022/01/29 08:34:36;;;;;;;7.78;6.97;;;;;;;18.22;38.89;102607.25;4992740;28;20061;-81
2022/01/29 08:37:04;;;;;;;7.80;6.80;;;;;;;18.21;38.87;102601.03;4993228;28;20050;-81
2022/01/29 08:39:33;;;;;;;9.05;7.25;;;;;;;18.23;38.72;102609.88;4993206;28;20061;-78
2022/01/29 08:42:01;;;;;;;7.15;6.45;;;;;;;18.23;38.90;102609.88;4992566;28;20478;-77
2022/01/29 08:44:28;;;;;;;8.15;6.95;;;;;;;18.20;39.21;102599.31;4991486;28;20073;-78
2022/01/29 08:46:56;;;;;;;7.18;6.47;;;;;;;18.16;39.43;102595.06;4992479;28;20042;-78
2022/01/29 08:49:25;;;;;;;9.43;7.05;;;;;;;18.15;39.40;102597.81;4992303;28;20051;-80
2022/01/29 08:51:53;;;;;;;8.38;7.53;;;;;;;18.10;39.37;102590.00;4992746;28;20038;-78
2022/01/29 08:54:20;;;;;;;8.07;6.88;;;;;;;18.08;39.25;102594.59;4992816;28;20043;-79
2022/01/29 08:56:48;;;;;;;8.23;7.32;;;;;;;18.07;39.59;102597.34;4992984;28;20058;-78
2022/01/29 08:59:15;;;;;;;7.72;6.43;;;;;;;18.07;39.49;102603.59;4992720;28;20057;-78
2022/01/29 09:01:43;;;;;;;7.72;6.93;;;;;;;18.07;39.55;102592.00;5006025;28;20054;-78
2022/01/29 09:04:10;;;;;;;9.00;7.28;;;;;;;18.05;39.22;102589.41;4991798;28;20068;-78
2022/01/29 09:06:38;;;;;;;7.72;6.43;;;;;;;18.06;39.34;102600.97;4992218;28;20058;-78
2022/01/29 09:09:05;;;;;;;8.95;6.90;;;;;;;18.07;39.58;102594.66;4992012;28;20054;-80
2022/01/29 09:11:34;;;;;;;7.85;7.05;;;;;;;18.08;39.62;102601.78;4992261;28;20039;-79
2022/01/29 09:14:01;;;;;;;7.85;6.65;;;;;;;18.07;39.87;102592.88;4991193;28;20052;-78
2022/01/29 09:16:29;;;;;;;8.02;6.78;;;;;;;18.06;39.85;102598.31;4991822;28;20184;-78
2022/01/29 09:18:56;;;;;;;7.57;6.45;;;;;;;18.07;39.82;102618.78;4992321;28;20058;-81
2022/01/29 09:21:24;;;;;;;7.65;6.85;;;;;;;18.06;39.76;102611.69;4991813;28;20053;-79
2022/01/29 09:23:55;;;;;;;7.30;6.60;;;;;;;18.04;39.63;102609.13;4991753;28;20061;-79
2022/01/29 09:26:23;;;;;;;8.65;7.15;;;;;;;18.05;39.33;102610.84;4991910;28;20397;-81
2022/01/29 09:28:51;;;;;;;8.00;7.20;;;;;;;18.04;39.26;102614.47;4992174;28;20046;-85
2022/01/29 09:31:19;;;;;;;12.32;8.13;;;;;;;18.04;39.17;102609.97;4994537;28;20042;-80
2022/01/29 09:33:46;;;;;;;9.52;7.53;;;;;;;18.04;38.96;102607.31;5011091;28;20094;-79
2022/01/29 09:36:14;;;;;;;9.63;7.80;;;;;;;18.04;38.93;102609.97;5011265;28;20042;-82
2022/01/29 09:38:41;;;;;;;12.25;7.47;;;;;;;18.04;39.02;102614.47;5011706;28;20386;-82
2022/01/29 09:41:09;;;;;;;9.25;8.35;;;;;;;18.04;38.86;102614.47;5011204;28;20057;-83
2022/01/29 09:43:37;;;;;;;8.80;7.90;;;;;;;18.06;38.90;102619.75;5011800;28;20050;-85
2022/01/29 09:46:05;;;;;;;9.02;8.13;;;;;;;18.05;38.78;102616.19;5011787;28;20053;-83
2022/01/29 09:48:34;;;;;;;10.38;8.13;;;;;;;18.06;39.06;102622.41;5011399;28;20046;-83
2022/01/29 09:51:05;;;;;;;9.27;8.38;;;;;;;18.05;38.88;102618.88;5011037;28;20523;-82
2022/01/29 09:53:32;;;;;;;12.75;8.48;;;;;;;18.04;38.81;102619.84;5011421;28;20046;-83
2022/01/29 09:55:59;;;;;;;10.13;9.23;;;;;;;18.05;38.66;102621.56;5028742;28;20053;-84
2022/01/29 09:58:27;;;;;;;10.48;9.38;;;;;;;18.04;38.53;102614.47;5011199;28;20049;-81
2022/01/29 10:00:54;;;;;;;11.23;10.05;;;;;;;18.04;38.50;102623.38;5010744;28;20505;-82
2022/01/29 10:03:22;;;;;;;10.30;9.38;;;;;;;18.05;38.60;102610.84;4991348;28;20053;-82
2022/01/29 10:05:52;;;;;;;10.57;9.30;;;;;;;18.06;38.57;102606.34;4991602;28;20051;-82
2022/01/29 10:08:21;;;;;;;10.10;8.43;;;;;;;18.05;38.69;102600.13;4990608;28;20058;-83
2022/01/29 10:10:59;;;;;;;8.70;7.90;;;;;;;18.04;38.78;102596.56;4990891;28;20047;-82
2022/01/29 10:13:47;;;;;;;;;;;;;;;;;;;;;
2022/01/29 10:16:27;;;;;;;10.57;9.38;;;;;;;18.04;38.63;102579.63;4991024;28;20382;-81
2022/01/29 10:19:05;;;;;;;9.82;8.88;;;;;;;18.04;38.45;102582.31;4991056;28;20050;-79
2022/01/29 10:21:35;;;;;;;10.35;8.65;;;;;;;18.02;38.49;102578.84;4991666;28;20046;-80
2022/01/29 10:24:11;;;;;;;12.45;10.45;;;;;;;18.03;38.58;102577.91;4990773;28;20046;-80
2022/01/29 10:26:40;;;;;;;10.93;9.77;;;;;;;18.02;38.62;102568.13;4990983;28;20046;-80
2022/01/29 10:29:23;;;;;;;10.90;8.98;;;;;;;18.02;38.60;102571.66;4990211;28;20050;-80
2022/01/29 10:31:53;;;;;;;11.18;10.00;;;;;;;18.02;38.53;102562.75;4990770;28;20054;-80
2022/01/29 10:34:23;;;;;;;11.18;9.98;;;;;;;18.01;38.56;102561.88;4992190;28;20046;-84
2022/01/29 10:37:12;;;;;;;10.02;9.02;;;;;;;18.01;38.40;102559.22;5009705;28;20494;-80
2022/01/29 10:39:41;;;;;;;10.73;9.60;;;;;;;18.01;38.49;102556.53;5111397;28;20063;-81
2022/01/29 10:42:19;;;;;;;11.32;9.90;;;;;;;18.01;38.56;102551.16;5112551;28;20054;-80
2022/01/29 10:44:51;;;;;;;11.82;9.60;;;;;;;18.02;38.46;102544.84;5113557;28;20048;-80
2022/01/29 10:47:19;;;;;;;10.32;9.30;;;;;;;18.03;38.57;102537.72;5113828;28;20062;-80
2022/01/29 10:49:59;;;;;;;10.80;9.32;;;;;;;18.03;38.51;102532.34;5113465;28;20044;-80
2022/01/29 10:52:34;;;;;;;10.00;9.00;;;;;;;18.01;38.50;102532.41;5113928;28;20050;-82
2022/01/29 10:55:07;;;;;;;10.63;8.82;;;;;;;18.03;38.91;102535.91;5146208;27;20052;-85
2022/01/29 10:57:39;;;;;;;10.60;8.75;;;;;;;18.02;38.88;102531.47;5113085;28;20046;-81
2022/01/29 11:00:15;;;;;;;9.80;8.80;;;;;;;18.03;38.70;102527.84;5113031;28;20047;-80
2022/01/29 11:02:44;;;;;;;9.70;8.70;;;;;;;18.03;38.90;102518.94;5049380;28;20395;-81
2022/01/29 11:05:11;;;;;;;10.35;9.23;;;;;;;18.02;38.73;102519.88;5026711;28;20141;-80
2022/01/29 11:07:39;;;;;;;11.55;9.13;;;;;;;18.03;38.69;102516.28;5009983;28;20065;-80
2022/01/29 11:10:09;;;;;;;13.15;9.10;;;;;;;18.02;38.79;102511.84;5010059;28;20453;-80
2022/01/29 11:12:47;;;;;;;9.73;8.55;;;;;;;18.02;38.78;102507.34;5008990;28;20053;-80
2022/01/29 11:15:16;;;;;;;10.55;9.35;;;;;;;18.02;38.69;102509.16;5010095;28;20050;-80
2022/01/29 11:17:45;;;;;;;9.45;8.48;;;;;;;18.02;38.72;102503.78;5008730;28;20041;-80
2022/01/29 11:20:15;;;;;;;9.23;8.32;;;;;;;18.02;38.81;102503.78;5010206;28;20056;-80
2022/01/29 11:22:49;;;;;;;8.45;7.75;;;;;;;18.02;38.79;102504.66;5009856;28;20504;-80
2022/01/29 11:25:21;;;;;;;9.93;8.93;;;;;;;18.02;38.76;102496.63;5010018;28;20046;-81
2022/01/29 11:28:11;;;;;;;9.73;8.77;;;;;;;18.03;38.69;102493.00;5010164;28;20069;-81
2022/01/29 11:30:42;;;;;;;11.43;8.60;;;;;;;18.03;38.87;102495.69;5010027;28;20090;-82
2022/01/29 11:33:09;;;;;;;10.10;7.97;;;;;;;18.04;38.80;102483.16;4991849;28;20055;-81
2022/01/29 11:35:51;;;;;;;9.55;8.55;;;;;;;18.03;38.66;102468.91;5007801;28;20057;-82
2022/01/29 11:38:29;;;;;;;9.68;8.68;;;;;;;18.03;38.74;102458.19;5010383;28;20041;-82
2022/01/29 11:40:59;;;;;;;8.10;7.30;;;;;;;18.03;39.05;102449.28;4992766;28;20057;-80
2022/01/29 11:43:29;;;;;;;9.70;8.80;;;;;;;18.04;39.19;102449.19;5009488;28;20050;-81
2022/01/29 11:46:04;;;;;;;9.75;7.88;;;;;;;18.03;39.38;102446.59;5009442;28;20046;-81
2022/01/29 11:48:52;;;;;;;8.90;7.22;;;;;;;18.03;39.35;102438.56;5010744;28;20046;-82